Time;durP1;ratioP1;P1;durP2;ratioP2;P2;SDS_P1;SDS_P2;PMS_P1;PMS_P2;Temp;Humidity;BMP_temperature;BMP_pressure;BME280_temperature;BME280_humidity;BME280_pressure;Samples;Min_cycle;Max_cycle;Signal;HPM_P1;HPM_P2
2022/11/02 00:01:50;;;;;;;2.47;1.30;;;;;;;12.83;75.68;101317.56;5073064;28;20037;-86
2022/11/02 00:04:15;;;;;;;3.70;1.40;;;;;;;12.85;75.82;101313.19;5073454;28;20024;-87
2022/11/02 00:06:40;;;;;;;4.60;1.43;;;;;;;12.86;75.80;101309.72;5060351;28;20025;-88
2022/11/02 00:09:06;;;;;;;6.13;1.50;;;;;;;12.86;75.74;101312.31;5072858;28;20519;-87
2022/11/02 00:11:31;;;;;;;3.87;1.33;;;;;;;12.90;75.51;101315.72;5073578;28;20020;-89
2022/11/02 00:13:57;;;;;;;3.37;1.33;;;;;;;12.91;75.31;101318.28;5072821;28;20017;-88
2022/11/02 00:16:24;;;;;;;4.93;1.80;;;;;;;12.90;74.82;101313.09;5072805;28;20083;-88
2022/11/02 00:18:52;;;;;;;3.70;1.40;;;;;;;12.89;74.91;101314.84;5053405;28;20066;-88
2022/11/02 00:21:20;;;;;;;6.22;1.73;;;;;;;12.89;75.12;101309.63;5052902;28;20500;-88
2022/11/02 00:23:46;;;;;;;5.70;1.60;;;;;;;12.91;75.29;101328.69;5053406;28;20021;-88
2022/11/02 00:26:12;;;;;;;3.08;1.50;;;;;;;12.93;75.15;101321.72;5052643;28;20068;-87
2022/11/02 00:28:37;;;;;;;4.33;1.80;;;;;;;12.91;75.07;101317.44;5052978;28;20079;-88
2022/11/02 00:31:02;;;;;;;4.23;1.40;;;;;;;12.91;75.08;101302.66;5052927;28;20029;-87
2022/11/02 00:33:28;;;;;;;5.77;2.13;;;;;;;12.92;74.95;101304.38;5065610;28;20047;-90
2022/11/02 00:35:54;;;;;;;5.67;1.80;;;;;;;12.92;75.59;101308.75;5073303;28;20029;-88
2022/11/02 00:38:19;;;;;;;4.88;1.50;;;;;;;12.95;74.68;101312.16;5072792;28;20114;-90
2022/11/02 00:40:45;;;;;;;3.53;1.60;;;;;;;12.97;74.85;101309.50;5072935;28;20155;-89
2022/11/02 00:43:10;;;;;;;5.07;1.57;;;;;;;12.99;74.59;101323.38;5080894;28;20524;-89
2022/11/02 00:45:35;;;;;;;7.23;1.80;;;;;;;13.01;74.34;101307.69;5079941;28;20021;-88
2022/11/02 00:48:01;;;;;;;3.97;1.50;;;;;;;13.05;74.10;101320.66;5061962;28;20571;-89
2022/11/02 00:50:26;;;;;;;10.17;2.27;;;;;;;13.08;73.39;101317.13;5056815;28;20025;-90
2022/11/02 00:52:51;;;;;;;6.20;1.90;;;;;;;13.05;73.51;101333.69;5056481;28;20059;-89
2022/11/02 00:55:17;;;;;;;6.43;1.60;;;;;;;13.05;72.61;101331.09;5056703;28;20028;-88
2022/11/02 00:57:43;;;;;;;4.13;1.43;;;;;;;13.05;72.72;101328.47;5057027;28;20079;-89
2022/11/02 01:00:09;;;;;;;7.07;1.50;;;;;;;13.02;72.83;101349.38;5056463;28;20044;-88
2022/11/02 01:02:35;;;;;;;2.60;1.30;;;;;;;12.98;72.94;101337.28;5055985;28;20021;-89
2022/11/02 01:05:21;;;;;;;4.37;1.60;;;;;;;12.95;72.62;101337.31;5060882;28;20166;-90
2022/11/02 01:07:46;;;;;;;3.95;1.50;;;;;;;12.89;73.08;101342.66;5073670;28;20131;-91
2022/11/02 01:10:11;;;;;;;4.90;1.53;;;;;;;12.87;72.60;101357.44;5076184;28;20052;-89
2022/11/02 01:12:38;;;;;;;5.37;1.63;;;;;;;12.80;72.46;101356.69;5076241;28;20028;-91
2022/11/02 01:15:22;;;;;;;2.78;1.38;;;;;;;12.80;72.23;101372.31;5056990;28;20036;-90
2022/11/02 01:17:48;;;;;;;3.55;1.38;;;;;;;12.74;72.08;101364.59;5075808;28;20078;-91
2022/11/02 01:20:13;;;;;;;4.57;1.83;;;;;;;12.73;72.55;101376.75;5076113;28;20431;-87
2022/11/02 01:22:38;;;;;;;5.10;1.53;;;;;;;12.67;72.43;101361.22;5075498;28;20016;-89
2022/11/02 01:25:15;;;;;;;;;;;;;;;;;;;;;
2022/11/02 01:27:44;;;;;;;3.05;1.40;;;;;;;12.55;71.81;101359.69;5060765;28;20028;-90
2022/11/02 01:30:10;;;;;;;2.60;1.20;;;;;;;12.54;72.42;101367.50;5055475;28;20033;-89
2022/11/02 01:32:35;;;;;;;5.60;1.50;;;;;;;12.50;72.64;101370.16;5056397;28;20027;-91
2022/11/02 01:35:01;;;;;;;4.47;1.50;;;;;;;12.44;71.86;101357.25;5055801;28;20067;-87
2022/11/02 01:37:27;;;;;;;8.07;1.60;;;;;;;12.42;71.79;101369.41;5055406;28;20484;-89
2022/11/02 01:40:09;;;;;;;4.23;1.60;;;;;;;12.42;72.03;101374.63;5055782;28;20060;-90
2022/11/02 01:42:43;;;;;;;4.05;1.33;;;;;;;12.35;71.83;101367.78;5063628;28;20012;-88
2022/11/02 01:45:12;;;;;;;7.35;1.60;;;;;;;12.34;71.94;101377.31;5075052;28;20021;-90
2022/11/02 01:47:41;;;;;;;5.10;1.60;;;;;;;12.31;72.20;101380.00;5075479;28;20035;-89
2022/11/02 01:50:27;;;;;;;4.28;1.25;;;;;;;12.28;72.46;101387.84;5075195;28;20522;-90
2022/11/02 01:52:53;;;;;;;5.22;1.23;;;;;;;12.27;72.23;101380.06;5074365;28;20063;-90
2022/11/02 01:55:28;;;;;;;5.33;1.60;;;;;;;12.26;72.33;101387.00;5075781;28;20027;-89
2022/11/02 01:58:01;;;;;;;3.20;1.30;;;;;;;12.27;72.42;101382.66;5074770;28;20039;-88
2022/11/02 02:00:26;;;;;;;6.07;1.55;;;;;;;12.22;72.29;101387.06;5076071;28;20050;-91
2022/11/02 02:03:03;;;;;;;5.73;1.70;;;;;;;12.23;72.45;101383.56;5075821;28;20094;-90
2022/11/02 02:05:31;;;;;;;4.53;1.08;;;;;;;12.22;72.69;101389.66;5064964;28;20060;-88
2022/11/02 02:07:57;;;;;;;2.88;1.38;;;;;;;12.23;72.45;101386.19;5056977;28;20055;-91
2022/11/02 02:10:22;;;;;;;5.03;1.60;;;;;;;12.22;72.78;101387.06;5075419;28;20418;-89
2022/11/02 02:12:48;;;;;;;5.73;1.50;;;;;;;12.23;72.50;101387.03;5074796;28;20095;-89
2022/11/02 02:15:14;;;;;;;6.65;1.80;;;;;;;12.21;72.36;101388.81;5075059;28;20025;-90
2022/11/02 02:18:04;;;;;;;2.70;1.20;;;;;;;12.20;72.84;101381.88;5075185;28;20461;-88
2022/11/02 02:20:44;;;;;;;6.57;1.48;;;;;;;12.16;72.46;101383.63;5074647;28;20020;-89
2022/11/02 02:23:30;;;;;;;5.45;1.60;;;;;;;12.13;72.65;101385.44;5074603;28;20032;-87
2022/11/02 02:26:01;;;;;;;4.10;1.40;;;;;;;12.10;72.76;101390.69;5074642;28;20028;-89
2022/11/02 02:28:33;;;;;;;3.40;1.02;;;;;;;12.05;72.97;101391.59;5075007;28;20111;-90
2022/11/02 02:31:11;;;;;;;3.35;1.20;;;;;;;11.99;73.04;101393.41;5074766;28;20024;-89
2022/11/02 02:33:59;;;;;;;4.47;1.35;;;;;;;11.95;73.12;101392.56;5074674;28;20036;-91
2022/11/02 02:36:32;;;;;;;5.25;1.13;;;;;;;11.88;73.74;101375.28;5075339;28;20380;-89
2022/11/02 02:39:38;;;;;;;5.43;1.20;;;;;;;11.82;74.60;101386.63;5074102;28;20108;-89
2022/11/02 02:42:09;;;;;;;;;;;;;;;11.79;74.13;101391.88;5074770;28;20032;-89
2022/11/02 02:44:39;;;;;;;5.60;1.50;;;;;;;11.76;74.35;101397.13;5074682;28;19912;-90
2022/11/02 02:47:12;;;;;;;4.80;1.20;;;;;;;11.77;74.21;101398.84;5074018;28;20472;-90
2022/11/02 02:49:46;;;;;;;3.45;1.25;;;;;;;11.69;74.41;101388.53;5074649;28;20024;-90
2022/11/02 02:52:15;;;;;;;3.80;1.27;;;;;;;11.67;74.93;101399.81;5074611;28;20025;-90
2022/11/02 02:54:45;;;;;;;3.50;1.23;;;;;;;11.61;75.20;101392.06;5074242;28;20036;-90
2022/11/02 02:57:13;;;;;;;3.80;1.30;;;;;;;11.61;74.88;101397.28;5074483;28;20028;-90
2022/11/02 02:59:47;;;;;;;3.55;1.38;;;;;;;11.58;74.94;101396.44;5074266;28;20465;-90
2022/11/02 03:02:20;;;;;;;3.55;1.38;;;;;;;11.56;74.93;101393.00;5074251;28;20031;-91
2022/11/02 03:04:45;;;;;;;3.42;1.13;;;;;;;11.56;75.21;101393.00;5073418;28;20385;-92
2022/11/02 03:07:15;;;;;;;2.63;1.23;;;;;;;11.55;74.98;101391.28;5074174;28;20029;-90
2022/11/02 03:09:50;;;;;;;8.13;1.90;;;;;;;11.56;75.06;101397.31;5074023;28;20025;-89
2022/11/02 03:12:36;;;;;;;8.32;1.77;;;;;;;11.53;74.87;101390.44;5074469;28;20416;-89
2022/11/02 03:15:43;;;;;;;6.43;1.58;;;;;;;11.52;74.70;101398.25;5073739;28;20028;-90
2022/11/02 03:18:34;;;;;;;5.68;1.80;;;;;;;11.56;74.25;101400.81;5050925;28;20047;-89
2022/11/02 03:21:37;;;;;;;3.90;1.33;;;;;;;11.53;74.67;101403.41;5073720;28;20033;-89
2022/11/02 03:24:13;;;;;;;7.25;1.52;;;;;;;11.53;74.28;101407.78;5059196;28;20061;-89
2022/11/02 03:26:52;;;;;;;4.22;1.50;;;;;;;11.53;74.48;101413.81;5056444;28;20021;-89
2022/11/02 03:29:23;;;;;;;6.85;1.65;;;;;;;11.59;74.11;101416.38;5053396;28;20029;-88
2022/11/02 03:32:03;;;;;;;7.15;1.80;;;;;;;11.58;74.82;101412.06;5054271;28;20029;-87
2022/11/02 03:34:45;;;;;;;7.40;1.95;;;;;;;11.58;74.52;101431.97;5054251;28;20017;-90
2022/11/02 03:37:17;;;;;;;6.80;1.90;;;;;;;11.56;74.29;101426.78;5066642;28;20098;-89
2022/11/02 03:39:57;;;;;;;6.68;1.70;;;;;;;11.57;74.55;101420.72;5073846;28;20024;-90
2022/11/02 03:42:26;;;;;;;4.25;1.48;;;;;;;11.56;74.48;101433.72;5074073;28;20024;-89
2022/11/02 03:44:58;;;;;;;6.47;1.70;;;;;;;11.54;74.41;101438.94;5073655;28;20028;-90
2022/11/02 03:47:29;;;;;;;5.97;1.80;;;;;;;11.58;73.65;101431.97;5073785;28;20046;-91
2022/11/02 03:49:57;;;;;;;7.32;1.80;;;;;;;11.58;73.88;101426.78;5073100;28;20065;-87
2022/11/02 03:52:28;;;;;;;6.32;1.52;;;;;;;11.56;74.25;101436.31;5073622;28;20401;-89
2022/11/02 03:55:07;;;;;;;4.57;1.63;;;;;;;11.54;74.19;101436.34;5065751;28;20111;-90
2022/11/02 03:57:58;;;;;;;4.75;1.40;;;;;;;11.51;74.32;101433.75;5068484;28;20033;-89
2022/11/02 04:00:27;;;;;;;8.40;2.03;;;;;;;11.48;74.18;101446.81;5071157;28;20033;-89
2022/11/02 04:02:57;;;;;;;6.35;1.88;;;;;;;11.46;74.62;101445.97;5073376;28;20032;-88
2022/11/02 04:05:34;;;;;;;4.05;1.70;;;;;;;11.43;75.05;101458.97;5073311;28;20035;-87
2022/11/02 04:16:14;;;;;;;8.05;1.70;;;;;;;11.42;75.32;101462.44;5058223;28;20085;-89
2022/11/02 04:21:24;;;;;;;5.40;1.85;;;;;;;11.42;75.25;101480.66;5077494;28;20086;-91
2022/11/02 04:26:33;;;;;;;9.20;1.98;;;;;;;11.38;75.50;101490.22;5076565;28;20039;-90
2022/11/02 04:28:58;;;;;;;8.17;2.03;;;;;;;11.40;75.80;101488.47;5077094;28;20025;-89
2022/11/02 04:31:23;;;;;;;4.87;1.70;;;;;;;11.41;75.49;101490.19;5077192;28;20385;-89
2022/11/02 04:33:48;;;;;;;7.90;1.60;;;;;;;11.42;75.94;101485.84;5076528;28;20121;-89
2022/11/02 04:36:14;;;;;;;9.57;1.77;;;;;;;11.39;76.01;101501.44;5076681;28;20031;-87
2022/11/02 04:38:39;;;;;;;4.07;1.43;;;;;;;11.36;75.85;101506.69;5077265;28;20082;-91
2022/11/02 04:41:41;;;;;;;5.37;1.70;;;;;;;11.38;75.55;101525.72;5076473;28;20043;-89
2022/11/02 04:44:07;;;;;;;9.18;2.22;;;;;;;11.34;76.07;101518.84;5076645;28;20028;-88
2022/11/02 04:46:35;;;;;;;9.27;2.28;;;;;;;11.31;75.92;101513.66;5070897;28;20025;-88
2022/11/02 04:49:01;;;;;;;5.57;1.73;;;;;;;11.34;75.89;101540.47;5056799;28;20025;-92
2022/11/02 04:51:27;;;;;;;5.17;1.70;;;;;;;11.30;76.36;101546.59;5057223;28;20033;-89
2022/11/02 04:53:55;;;;;;;8.30;1.80;;;;;;;11.28;76.00;101535.34;5056385;28;20032;-92
2022/11/02 04:56:21;;;;;;;6.53;2.00;;;;;;;11.30;75.79;101543.97;5060683;28;20048;-90
2022/11/02 04:58:50;;;;;;;6.80;1.83;;;;;;;11.38;75.49;101546.50;5076808;28;20062;-90
2022/11/02 05:01:17;;;;;;;10.52;2.38;;;;;;;11.32;76.13;101549.16;5076587;28;20074;-90
2022/11/02 05:03:45;;;;;;;7.65;2.08;;;;;;;11.30;75.78;101541.38;5076717;28;20032;-88
2022/11/02 05:06:10;;;;;;;7.97;1.70;;;;;;;11.30;76.03;101556.97;5077036;28;20032;-89
2022/11/02 05:08:35;;;;;;;5.93;1.83;;;;;;;11.35;75.43;101549.16;5076198;28;20051;-89
2022/11/02 05:11:01;;;;;;;8.17;2.33;;;;;;;11.34;75.96;101560.41;5075939;28;20028;-89
2022/11/02 05:13:27;;;;;;;6.83;1.70;;;;;;;11.33;75.91;101559.53;5076696;28;20036;-89
2022/11/02 05:15:56;;;;;;;3.67;1.43;;;;;;;11.34;76.05;101566.47;5075860;28;20415;-89
2022/11/02 05:18:22;;;;;;;7.15;1.70;;;;;;;11.35;75.66;101575.97;5056326;28;20025;-89
2022/11/02 05:20:51;;;;;;;7.67;1.93;;;;;;;11.35;75.79;101580.34;5055917;28;20028;-90
2022/11/02 05:23:18;;;;;;;4.82;1.70;;;;;;;11.35;75.73;101575.97;5055981;28;20036;-89
2022/11/02 05:26:01;;;;;;;6.22;1.90;;;;;;;11.32;75.68;101594.19;5056307;28;20086;-90
2022/11/02 05:28:27;;;;;;;8.20;1.70;;;;;;;11.30;75.63;101588.16;5054876;28;20036;-90
2022/11/02 05:30:53;;;;;;;7.18;1.90;;;;;;;11.26;75.80;101602.88;5057967;28;20029;-88
2022/11/02 05:33:19;;;;;;;7.30;2.23;;;;;;;11.26;75.77;101597.69;5076226;28;20024;-89
2022/11/02 05:35:45;;;;;;;9.33;2.10;;;;;;;11.28;75.57;101603.75;5076165;28;20082;-89
2022/11/02 05:38:10;;;;;;;4.63;1.60;;;;;;;11.26;75.79;101600.28;5075893;28;20029;-88
2022/11/02 05:40:39;;;;;;;5.13;1.80;;;;;;;11.24;75.59;101612.44;5076210;28;20149;-90
2022/11/02 05:43:07;;;;;;;8.48;2.05;;;;;;;11.27;75.90;101607.22;5075339;28;20533;-88
2022/11/02 05:45:32;;;;;;;7.30;1.73;;;;;;;11.25;75.56;101623.69;5075786;28;20077;-88
2022/11/02 05:48:02;;;;;;;6.80;1.90;;;;;;;11.24;75.63;101632.34;5058892;28;20033;-88
2022/11/02 05:50:28;;;;;;;7.65;1.92;;;;;;;11.19;75.81;101624.59;5055504;28;20033;-86
2022/11/02 05:52:53;;;;;;;4.87;1.53;;;;;;;11.19;75.64;101626.34;5055504;28;20024;-89
2022/11/02 05:55:19;;;;;;;4.43;1.50;;;;;;;11.17;75.86;101635.88;5055842;28;20028;-88
2022/11/02 05:57:52;;;;;;;4.40;1.30;;;;;;;11.10;75.87;101632.44;5069162;28;20047;-90
2022/11/02 06:00:18;;;;;;;8.27;1.60;;;;;;;11.06;75.45;101625.50;5075768;28;20032;-89
2022/11/02 06:02:43;;;;;;;4.00;1.57;;;;;;;11.00;75.88;101641.13;5078619;28;20385;-90
2022/11/02 06:05:08;;;;;;;4.97;1.20;;;;;;;10.96;76.33;101648.94;5079589;28;20494;-89
2022/11/02 06:07:34;;;;;;;5.07;1.43;;;;;;;10.91;76.29;101652.41;5075660;28;20032;-88
2022/11/02 06:09:59;;;;;;;5.77;1.40;;;;;;;10.87;76.44;101659.38;5074810;28;20111;-88
2022/11/02 06:12:24;;;;;;;4.87;1.70;;;;;;;10.82;76.84;101668.88;5074863;28;20035;-88
2022/11/02 06:14:49;;;;;;;5.17;1.60;;;;;;;10.78;76.53;101667.19;5075141;28;20065;-88
2022/11/02 06:17:15;;;;;;;5.97;1.80;;;;;;;10.72;76.72;101670.66;5065989;28;20021;-88
2022/11/02 06:19:40;;;;;;;4.83;1.30;;;;;;;10.72;77.02;101669.78;5055224;28;20044;-88
2022/11/02 06:22:05;;;;;;;4.07;1.50;;;;;;;10.67;77.15;101687.97;5054943;28;20561;-89
2022/11/02 06:24:30;;;;;;;5.80;1.43;;;;;;;10.65;77.42;101688.00;5058009;28;20025;-88
2022/11/02 06:26:56;;;;;;;6.73;1.57;;;;;;;10.62;77.37;101693.19;5054617;28;20035;-89
2022/11/02 06:29:21;;;;;;;7.80;1.60;;;;;;;10.60;77.47;101694.91;5054952;28;20043;-87
2022/11/02 06:31:46;;;;;;;5.47;1.23;;;;;;;10.58;77.34;101708.75;5054385;28;20032;-89
2022/11/02 06:34:12;;;;;;;5.17;1.40;;;;;;;10.56;77.76;101705.28;5054577;28;20027;-93
2022/11/02 06:36:37;;;;;;;3.97;1.20;;;;;;;10.55;77.90;101719.13;5054396;28;20485;-89
2022/11/02 06:39:02;;;;;;;5.97;1.40;;;;;;;10.52;78.10;101717.41;5052984;28;20021;-87
2022/11/02 06:41:27;;;;;;;5.53;1.60;;;;;;;10.49;77.92;101725.19;5054469;28;20042;-88
2022/11/02 06:43:53;;;;;;;3.90;1.43;;;;;;;10.46;78.19;101735.59;5053969;28;20117;-88
2022/11/02 06:46:18;;;;;;;5.67;1.50;;;;;;;10.48;77.93;101746.81;5054377;28;20468;-88
2022/11/02 06:48:46;;;;;;;6.33;1.57;;;;;;;10.45;78.37;101752.03;5054579;28;20047;-88
2022/11/02 06:51:11;;;;;;;5.38;1.50;;;;;;;10.43;78.38;101758.97;5073988;28;20078;-89
2022/11/02 06:53:36;;;;;;;6.07;1.60;;;;;;;10.40;78.44;101761.53;5073778;28;20029;-88
2022/11/02 06:56:02;;;;;;;4.20;1.37;;;;;;;10.38;79.32;101768.47;5073895;28;20016;-90
2022/11/02 06:58:28;;;;;;;2.07;1.10;;;;;;;10.34;78.74;101778.81;5074354;28;20032;-88
2022/11/02 07:00:58;;;;;;;5.07;1.50;;;;;;;10.34;78.47;101784.00;5073679;28;20033;-89
2022/11/02 07:03:24;;;;;;;4.97;1.50;;;;;;;10.34;78.50;101789.19;5074465;28;20066;-89
2022/11/02 07:05:51;;;;;;;4.37;1.80;;;;;;;10.34;78.84;101794.41;5074120;28;20028;-88
2022/11/02 07:08:16;;;;;;;;;;;;;;;10.34;78.53;101791.78;5073820;28;20040;-88
2022/11/02 07:10:41;;;;;;;5.70;1.60;;;;;;;10.33;78.64;101807.34;5074385;28;19920;-94
2022/11/02 07:13:06;;;;;;;6.70;1.27;;;;;;;10.31;79.14;101811.66;5074072;28;20066;-90
2022/11/02 07:15:32;;;;;;;5.17;1.47;;;;;;;10.32;78.87;101824.66;5074393;28;20413;-90
2022/11/02 07:17:57;;;;;;;4.37;1.20;;;;;;;10.35;79.35;101826.38;5071701;28;20020;-86
2022/11/02 07:20:23;;;;;;;6.50;1.43;;;;;;;10.32;79.29;101827.25;5080861;22;20049;-87
2022/11/02 07:22:57;;;;;;;7.03;1.80;;;;;;;10.35;78.93;101834.16;5072747;28;20063;-88
2022/11/02 07:25:24;;;;;;;4.63;1.42;;;;;;;10.35;79.24;101845.44;5073264;28;20039;-82
2022/11/02 07:27:49;;;;;;;4.20;1.33;;;;;;;10.38;79.21;101847.19;5072636;28;20078;-81
2022/11/02 07:30:15;;;;;;;3.80;1.40;;;;;;;10.40;79.58;101849.78;5070347;28;20036;-82
2022/11/02 07:32:41;;;;;;;4.70;1.37;;;;;;;10.41;79.14;101844.59;5073071;28;20020;-85
2022/11/02 07:35:08;;;;;;;4.53;1.50;;;;;;;10.43;78.86;101855.81;5071900;28;20020;-84
2022/11/02 07:37:34;;;;;;;4.45;1.40;;;;;;;10.45;78.97;101848.91;5073490;28;20070;-90
2022/11/02 07:39:59;;;;;;;4.27;1.30;;;;;;;10.47;78.80;101854.13;5073760;28;20024;-91
2022/11/02 07:42:24;;;;;;;2.40;1.27;;;;;;;10.48;79.10;101855.84;5074444;28;20419;-90
2022/11/02 07:44:50;;;;;;;4.40;1.47;;;;;;;10.48;78.97;101859.31;5073922;28;20119;-93
2022/11/02 07:47:15;;;;;;;3.33;1.30;;;;;;;10.52;78.72;101859.31;5074352;28;20570;-94
2022/11/02 07:49:40;;;;;;;5.67;1.20;;;;;;;10.53;78.67;101861.91;5074245;28;20031;-94
2022/11/02 07:52:06;;;;;;;5.97;1.57;;;;;;;10.57;78.76;101867.97;5073095;28;20025;-92
2022/11/02 07:54:31;;;;;;;3.53;1.43;;;;;;;10.57;79.04;101873.16;5073965;28;20025;-92
2022/11/02 07:56:56;;;;;;;4.63;1.43;;;;;;;10.58;79.14;101867.09;5073226;28;20082;-91
2022/11/02 07:59:21;;;;;;;2.77;1.50;;;;;;;10.66;78.54;101875.75;5074313;28;20032;-93
2022/11/02 08:01:47;;;;;;;3.03;1.20;;;;;;;10.72;78.27;101880.09;5074714;28;20108;-96
2022/11/02 08:04:12;;;;;;;5.10;1.40;;;;;;;10.68;79.63;101881.81;5074502;28;20028;-94
2022/11/02 08:06:38;;;;;;;5.10;1.27;;;;;;;10.69;79.15;101873.19;5075254;28;20036;-95
2022/11/02 08:09:03;;;;;;;7.67;1.60;;;;;;;10.71;79.30;101889.63;5061402;28;20100;-94
2022/11/02 08:11:28;;;;;;;6.80;1.60;;;;;;;10.76;79.30;101884.44;5053920;28;20064;-93
2022/11/02 08:13:53;;;;;;;5.90;1.70;;;;;;;10.81;78.69;101880.97;5053410;28;20025;-91
2022/11/02 08:16:19;;;;;;;4.83;1.40;;;;;;;10.81;79.50;101888.75;5054418;28;20020;-92
2022/11/02 08:18:44;;;;;;;6.20;1.40;;;;;;;10.87;79.29;101884.41;5067422;28;20166;-94
2022/11/02 08:21:09;;;;;;;7.37;1.50;;;;;;;10.91;79.40;101892.25;5073238;28;20058;-94
2022/11/02 08:23:34;;;;;;;6.53;2.00;;;;;;;11.00;78.66;101901.75;5073658;28;20021;-92
2022/11/02 08:26:00;;;;;;;4.10;1.37;;;;;;;11.03;79.07;101899.16;5073266;28;20028;-93
2022/11/02 08:28:29;;;;;;;7.17;1.90;;;;;;;11.06;78.58;101895.69;5071582;28;20058;-94
2022/11/02 08:30:56;;;;;;;5.80;1.63;;;;;;;11.08;78.63;101917.34;5074477;28;20141;-96
2022/11/02 08:33:21;;;;;;;;;;;;;;;11.15;78.69;101908.66;5074408;28;20063;-92
2022/11/02 08:35:48;;;;;;;4.03;1.63;;;;;;;11.20;79.15;101906.94;5073828;28;19912;-93
2022/11/02 08:38:13;;;;;;;3.25;1.20;;;;;;;11.28;78.96;101912.97;5073422;28;20029;-92
2022/11/02 08:40:39;;;;;;;4.77;1.63;;;;;;;11.37;78.01;101919.91;5074357;28;20035;-93
2022/11/02 08:43:07;;;;;;;4.30;1.27;;;;;;;11.44;77.71;101916.44;5074676;28;20372;-95
2022/11/02 08:45:34;;;;;;;8.13;1.60;;;;;;;11.56;76.68;101931.16;5081972;28;20044;-94
2022/11/02 08:47:59;;;;;;;;;;;;;;;11.60;77.02;101929.41;5071748;28;20020;-93
2022/11/02 08:50:25;;;;;;;7.07;1.90;;;;;;;11.65;77.35;101927.66;5053903;28;19924;-94
2022/11/02 08:52:51;;;;;;;10.13;2.27;;;;;;;11.72;77.20;101931.09;5053489;28;20545;-93
2022/11/02 08:55:17;;;;;;;6.90;1.90;;;;;;;11.78;76.77;101938.91;5053063;28;20317;-96
2022/11/02 08:57:53;;;;;;;6.93;1.50;;;;;;;11.85;75.94;101932.81;5060719;28;20074;-96
2022/11/02 09:00:21;;;;;;;5.13;1.60;;;;;;;11.94;75.90;101937.13;5074254;28;20024;-95
2022/11/02 09:03:06;;;;;;;9.88;1.95;;;;;;;12.07;75.04;101947.50;5074898;28;20021;-94
2022/11/02 09:05:36;;;;;;;6.95;1.80;;;;;;;12.13;74.63;101937.06;5078142;28;20031;-94
2022/11/02 09:08:04;;;;;;;6.97;1.65;;;;;;;12.19;74.51;101944.88;5064931;28;20021;-94
2022/11/02 09:10:31;;;;;;;4.32;1.70;;;;;;;12.31;74.18;101938.72;5077525;28;20465;-91
2022/11/02 09:13:01;;;;;;;7.55;2.00;;;;;;;12.33;73.45;101934.38;5075729;28;20115;-85
2022/11/02 09:15:27;;;;;;;4.57;1.35;;;;;;;12.40;73.87;101948.22;5074990;28;20569;-86
2022/11/02 09:17:53;;;;;;;2.47;1.30;;;;;;;12.46;74.04;101945.56;5067898;28;20188;-86
2022/11/02 09:20:19;;;;;;;3.57;1.20;;;;;;;12.49;74.53;101949.06;5055766;28;20069;-86
2022/11/02 09:22:45;;;;;;;5.07;1.50;;;;;;;12.58;73.66;101952.47;5055178;28;20040;-87
2022/11/02 09:25:12;;;;;;;5.37;1.60;;;;;;;12.66;73.70;101953.28;5062480;28;20025;-87
2022/11/02 09:27:38;;;;;;;5.18;1.35;;;;;;;12.77;72.74;101950.63;5060336;28;20359;-88
2022/11/02 09:30:04;;;;;;;6.13;1.58;;;;;;;12.83;72.11;101943.59;5064088;28;20481;-86
2022/11/02 09:32:32;;;;;;;4.57;1.42;;;;;;;12.86;72.48;101954.88;5070271;28;20016;-87
2022/11/02 09:35:01;;;;;;;5.18;1.63;;;;;;;12.90;73.24;101949.63;5083177;22;20056;-95
2022/11/02 09:37:27;;;;;;;7.50;1.73;;;;;;;13.00;72.67;101949.59;5078827;28;20028;-94
2022/11/02 09:39:52;;;;;;;3.13;1.27;;;;;;;13.11;73.08;101959.03;5088489;28;20035;-95
2022/11/02 09:42:24;;;;;;;4.97;1.43;;;;;;;13.18;72.93;101957.25;5078683;28;20021;-96
2022/11/02 09:45:01;;;;;;;9.38;1.65;;;;;;;13.20;71.04;101963.31;5077466;28;20028;-94
2022/11/02 09:47:29;;;;;;;10.00;2.15;;;;;;;13.23;71.45;101962.44;5078407;28;20024;-96
2022/11/02 09:49:58;;;;;;;7.43;1.70;;;;;;;13.28;70.63;101971.09;5077531;28;20096;-96
2022/11/02 09:52:30;;;;;;;7.53;1.88;;;;;;;13.29;71.85;101972.78;5080203;28;20495;-94
2022/11/02 09:54:58;;;;;;;6.43;1.80;;;;;;;13.43;71.01;101970.13;5080988;28;20035;-96
2022/11/02 09:57:29;;;;;;;7.63;2.00;;;;;;;13.58;70.50;101974.31;5077991;28;20024;-94
2022/11/02 09:59:55;;;;;;;6.47;1.75;;;;;;;13.54;70.50;101964.78;5077177;28;20043;-96
2022/11/02 10:02:30;;;;;;;9.20;2.17;;;;;;;13.54;69.57;101973.50;5082977;28;20020;-96
2022/11/02 10:05:13;;;;;;;7.15;1.80;;;;;;;13.65;70.35;101980.34;5082729;28;20444;-96
2022/11/02 10:07:57;;;;;;;4.22;1.48;;;;;;;13.69;70.62;101980.28;5075808;28;20376;-94
2022/11/02 10:10:30;;;;;;;4.97;1.38;;;;;;;13.79;69.91;101986.25;5075376;28;20032;-94
2022/11/02 10:13:10;;;;;;;4.15;1.35;;;;;;;13.84;70.35;101988.84;5075512;28;20023;-94
2022/11/02 10:15:48;;;;;;;12.07;2.22;;;;;;;13.90;68.75;101991.38;5075082;28;20032;-92
2022/11/02 10:18:24;;;;;;;6.10;1.73;;;;;;;13.92;69.03;101999.19;5075205;28;20024;-94
2022/11/02 10:21:07;;;;;;;7.10;1.98;;;;;;;13.93;67.50;101996.56;5075348;28;20106;-93
2022/11/02 10:23:37;;;;;;;7.22;2.10;;;;;;;13.86;67.02;102003.59;5075811;28;20067;-94
2022/11/02 10:26:03;;;;;;;7.25;1.63;;;;;;;13.84;67.78;102000.13;5075249;28;20350;-96
2022/11/02 10:28:35;;;;;;;5.68;1.50;;;;;;;13.89;67.40;102006.19;5075795;28;20031;-96
2022/11/02 10:31:02;;;;;;;4.47;1.48;;;;;;;13.88;65.15;101998.34;5077620;28;20106;-95
2022/11/02 10:33:29;;;;;;;5.72;1.70;;;;;;;13.89;65.78;102006.19;5076501;28;20045;-94
2022/11/02 10:36:21;;;;;;;7.00;1.90;;;;;;;13.85;67.01;102003.59;5075651;28;20025;-92
2022/11/02 10:39:11;;;;;;;5.18;1.23;;;;;;;13.93;67.09;101995.69;5075133;28;20048;-93
2022/11/02 10:42:01;;;;;;;7.40;1.90;;;;;;;14.01;67.40;102002.56;5075126;28;20074;-95
2022/11/02 10:44:48;;;;;;;3.85;1.52;;;;;;;14.02;65.91;102006.91;5074853;28;20043;-92
2022/11/02 10:47:21;;;;;;;;;;;;;;;14.09;66.48;102009.44;5059531;28;20426;-93
2022/11/02 10:50:24;;;;;;;8.32;1.90;;;;;;;14.14;66.50;102020.69;5074453;28;19923;-93
2022/11/02 10:52:50;;;;;;;6.13;1.52;;;;;;;14.17;65.88;102016.31;5060230;28;20067;-92
2022/11/02 10:55:23;;;;;;;3.97;1.63;;;;;;;14.17;64.61;102018.06;5071423;28;20052;-88
2022/11/02 10:57:53;;;;;;;6.18;1.70;;;;;;;14.14;65.00;102018.94;5062190;28;20423;-88
2022/11/02 11:00:27;;;;;;;5.85;1.77;;;;;;;14.11;65.59;102024.22;5073444;28;20035;-87
2022/11/02 11:03:07;;;;;;;4.72;1.63;;;;;;;14.14;65.09;102024.16;5069517;28;20096;-90
2022/11/02 11:05:35;;;;;;;6.72;2.00;;;;;;;14.16;64.13;102022.41;5073922;28;20021;-91
2022/11/02 11:08:01;;;;;;;5.22;1.30;;;;;;;14.16;65.24;102018.94;5073981;28;20062;-90
2022/11/02 11:10:27;;;;;;;7.53;1.90;;;;;;;14.19;64.68;102022.38;5074510;28;20021;-89
2022/11/02 11:12:54;;;;;;;4.85;1.42;;;;;;;14.20;63.85;102024.09;5062523;28;20108;-87
2022/11/02 11:15:29;;;;;;;3.97;1.50;;;;;;;14.21;63.81;102019.75;5054390;28;20031;-90
2022/11/02 11:17:55;;;;;;;6.15;1.95;;;;;;;14.25;64.09;102012.72;5072746;28;20101;-90
2022/11/02 11:20:31;;;;;;;4.87;1.53;;;;;;;14.29;64.72;102017.94;5073945;28;20016;-90
2022/11/02 11:23:18;;;;;;;4.40;1.67;;;;;;;14.31;64.05;102023.97;5074516;28;20031;-90
2022/11/02 11:25:54;;;;;;;4.63;1.55;;;;;;;14.33;63.51;102031.81;5066708;28;20424;-89
2022/11/02 11:28:36;;;;;;;3.92;1.17;;;;;;;14.28;64.24;102017.91;5070588;28;20373;-90
2022/11/02 11:31:15;;;;;;;5.82;1.50;;;;;;;14.28;62.54;102028.38;5072685;28;20069;-91
2022/11/02 11:33:46;;;;;;;4.22;1.42;;;;;;;14.29;63.51;102014.44;5056966;28;20079;-90
2022/11/02 11:36:22;;;;;;;4.85;1.40;;;;;;;14.34;61.96;102020.47;5073420;28;20384;-90
2022/11/02 11:38:49;;;;;;;2.83;1.13;;;;;;;14.38;63.21;102005.63;5057964;28;20381;-93
2022/11/02 11:41:15;;;;;;;2.85;1.17;;;;;;;14.38;62.49;102003.00;5063773;28;20090;-90
2022/11/02 11:43:41;;;;;;;3.03;1.17;;;;;;;14.39;62.84;101996.91;5073487;28;20117;-92
2022/11/02 11:46:10;;;;;;;5.00;1.30;;;;;;;14.42;63.46;101996.84;5073091;28;20086;-88
2022/11/02 11:48:41;;;;;;;3.97;1.02;;;;;;;14.45;63.09;102002.03;5059405;28;20032;-90
2022/11/02 11:51:30;;;;;;;4.30;1.52;;;;;;;14.43;63.94;101995.97;5053570;28;20029;-90
2022/11/02 11:54:25;;;;;;;3.45;1.30;;;;;;;14.41;62.31;101998.63;5053814;28;20036;-90